シドニー の空港の天気 - METARとTAF

シドニー国際空港 ( YSSY / SYD ) - オーストラリア ニューサウスウェールズ州、Mascot
飛行場実況気象(Metar)
観測時間05/27 02:00 AEST (05/26 16:00 UTC)
風向・風速北北西 4m/s
視程10km以上
天気現象
少しの雲 雲底高度 760m
全天の4割程度の雲 雲底高度 1830m
気温14℃
湿度82%
気圧1021hPa
METARYSSY 261600Z 34007KT 9999 FEW025 SCT060 14/11 Q1021 NOSIG
過去の天気等 Google飛行場航空写真 Wunderground天気予報

過去48時間のMETAR

飛行場予報(TAF)
発表時間: 5/26 21:04 AEST (5/26 11:04 UTC)
予報対象時間: 26日22時 AEST ~ 28日4時 AEST
風向・風速西北西 4m/s
視程10km以上
少しの雲 雲底高度 760m
27日10時 AEST から
風向・風速北西 3m/s
視程10km以上
少しの雲 雲底高度 910m
27日13時 AEST から
風向・風速北北東 4m/s
視程10km以上
なし
27日19時 AEST から
風向・風速西北西 4m/s
視程10km以上
なし
TAF YSSY 261104Z 2612/2718 29008KT 9999 FEW025
FM270000 32005KT 9999 FEW030
FM270300 02008KT CAVOK
FM270900 29008KT CAVOK